createdAt,value
2019-01-19T00:00:25.118Z,99.99
2019-01-19T00:01:25.518Z,99.99
2019-01-19T00:02:25.298Z,99.99
2019-01-19T00:03:25.090Z,99.99
2019-01-19T00:04:25.078Z,99.99
2019-01-19T00:05:25.265Z,99.99
2019-01-19T00:06:58.268Z,99.99
2019-01-19T00:07:25.041Z,99.99
2019-01-19T00:08:25.031Z,99.99
2019-01-19T00:09:25.027Z,99.99
2019-01-19T00:10:25.216Z,99.99
2019-01-19T00:11:25.000Z,99.99
2019-01-19T00:15:24.960Z,99.99
2019-01-19T00:16:24.954Z,99.99
2019-01-19T00:17:24.939Z,99.99
2019-01-19T00:18:24.931Z,99.99
2019-01-19T00:21:24.899Z,99.99
2019-01-19T00:23:24.872Z,99.99
2019-01-19T00:26:24.840Z,99.99
2019-01-19T00:27:24.829Z,99.99
2019-01-19T00:28:24.819Z,99.99
2019-01-19T00:29:25.010Z,99.99
2019-01-19T00:31:24.784Z,99.99
2019-01-19T00:32:24.782Z,99.99
2019-01-19T00:35:24.746Z,99.99
2019-01-19T00:36:24.735Z,99.99
2019-01-19T00:37:24.719Z,99.99
2019-01-19T00:38:24.712Z,99.99
2019-01-19T00:40:24.687Z,99.99
2019-01-19T00:41:24.876Z,99.99
2019-01-19T00:42:24.670Z,99.99
2019-01-19T00:43:24.660Z,99.99
2019-01-19T00:44:24.647Z,99.99
2019-01-19T00:45:24.838Z,99.99
2019-01-19T00:46:24.621Z,99.99
2019-01-19T00:48:24.799Z,99.99
2019-01-19T00:49:24.587Z,99.99
2019-01-19T00:50:24.576Z,99.99
2019-01-19T00:51:25.796Z,99.99
2019-01-19T00:54:24.539Z,99.99
2019-01-19T00:55:24.523Z,99.99
2019-01-19T00:57:24.502Z,99.99
2019-01-19T00:59:24.683Z,99.99
2019-01-19T01:01:24.459Z,99.99
2019-01-19T01:02:24.654Z,99.99
2019-01-19T01:05:25.391Z,99.99
2019-01-19T01:06:24.407Z,99.99
2019-01-19T01:07:24.395Z,99.99
2019-01-19T01:08:24.387Z,99.99
2019-01-19T01:09:24.578Z,99.99
2019-01-19T01:10:24.360Z,99.99
2019-01-19T01:11:24.352Z,99.99
2019-01-19T01:12:24.336Z,99.99
2019-01-19T01:14:24.316Z,99.99
2019-01-19T01:15:24.307Z,99.99
2019-01-19T01:20:24.662Z,99.99
2019-01-19T01:23:24.216Z,99.99
2019-01-19T01:24:24.211Z,99.99
2019-01-19T01:26:25.404Z,99.99
2019-01-19T01:27:24.180Z,99.99
2019-01-19T01:30:24.547Z,99.99
2019-01-19T01:31:24.335Z,99.99
2019-01-19T01:32:24.124Z,99.99
2019-01-19T01:33:24.312Z,99.99
2019-01-19T01:35:57.500Z,99.99
2019-01-19T01:36:24.488Z,99.99
2019-01-19T01:37:24.069Z,99.99
2019-01-19T01:38:24.466Z,99.99
2019-01-19T01:39:24.255Z,99.99
2019-01-19T01:42:24.010Z,99.99
2019-01-19T01:44:57.205Z,99.99
2019-01-19T01:45:23.981Z,99.99
2019-01-19T01:46:23.968Z,99.99
2019-01-19T01:47:24.164Z,99.99
2019-01-19T01:49:24.140Z,99.99
2019-01-19T01:51:23.920Z,99.99
2019-01-19T01:53:23.900Z,99.99
2019-01-19T01:54:24.088Z,99.99
2019-01-19T01:56:24.068Z,99.99
2019-01-19T01:57:24.060Z,99.99
2019-01-19T01:59:23.829Z,99.99
2019-01-19T02:00:23.820Z,99.99
2019-01-19T02:01:24.010Z,99.99
2019-01-19T02:03:24.195Z,99.99
2019-01-19T02:06:23.760Z,99.99
2019-01-19T02:07:23.749Z,99.99
2019-01-19T02:10:23.709Z,99.99
2019-01-19T02:11:23.700Z,99.99
2019-01-19T02:12:23.691Z,99.99
2019-01-19T02:13:23.678Z,99.99
2019-01-19T02:14:23.669Z,99.99
2019-01-19T02:15:56.867Z,99.99
2019-01-19T02:16:23.649Z,99.99
2019-01-19T02:17:23.634Z,99.99
2019-01-19T02:18:23.631Z,99.99
2019-01-19T02:19:23.814Z,99.99
2019-01-19T02:20:57.018Z,99.99
2019-01-19T02:21:23.592Z,99.99
2019-01-19T02:22:23.583Z,99.99
2019-01-19T02:24:23.559Z,99.99
2019-01-19T02:25:23.555Z,99.99
2019-01-19T02:27:23.728Z,99.99
2019-01-19T02:28:23.519Z,99.99
2019-01-19T02:29:23.710Z,99.99
2019-01-19T02:30:23.500Z,99.99
2019-01-19T02:32:23.682Z,99.99
2019-01-19T02:33:23.466Z,99.99
2019-01-19T02:34:23.455Z,99.99
2019-01-19T02:37:23.422Z,99.99
2019-01-19T02:38:23.412Z,99.99
2019-01-19T02:39:23.603Z,99.99
2019-01-19T02:40:23.396Z,99.99
2019-01-19T02:41:23.375Z,99.99
2019-01-19T02:42:23.372Z,99.99
2019-01-19T02:45:23.332Z,99.99
2019-01-19T02:47:23.315Z,99.99
2019-01-19T02:48:23.358Z,99.99
2019-01-19T02:49:23.492Z,99.99
2019-01-19T02:50:23.286Z,99.99
2019-01-19T02:51:23.470Z,99.99
2019-01-19T02:52:23.257Z,99.99
2019-01-19T02:53:23.452Z,99.99
2019-01-19T02:54:23.237Z,99.99
2019-01-19T02:55:23.226Z,99.99
2019-01-19T02:57:23.206Z,99.99
2019-01-19T02:58:23.195Z,99.99
2019-01-19T02:59:23.186Z,99.99
2019-01-19T03:00:23.379Z,99.99
2019-01-19T03:01:23.171Z,99.99
2019-01-19T03:03:23.543Z,99.99
2019-01-19T03:04:23.128Z,99.99
2019-01-19T03:05:23.122Z,99.99
2019-01-19T03:07:24.320Z,99.99
2019-01-19T03:08:23.084Z,99.99
2019-01-19T03:09:23.076Z,99.99
2019-01-19T03:12:23.047Z,99.99
2019-01-19T03:14:24.440Z,99.99
2019-01-19T03:15:23.215Z,99.99
2019-01-19T03:16:22.997Z,99.99
2019-01-19T03:17:22.993Z,99.99
2019-01-19T03:19:22.972Z,99.99
2019-01-19T03:20:22.961Z,99.99
2019-01-19T03:21:23.153Z,99.99
2019-01-19T03:22:22.934Z,99.99
2019-01-19T03:23:22.924Z,99.99
2019-01-19T03:24:23.118Z,99.99
2019-01-19T03:25:22.900Z,99.99
2019-01-19T03:26:23.098Z,99.99
2019-01-19T03:27:22.877Z,99.99
2019-01-19T03:28:23.272Z,99.99
2019-01-19T03:29:23.060Z,99.99
2019-01-19T03:30:23.052Z,99.99
2019-01-19T03:33:23.022Z,99.99
2019-01-19T03:34:23.005Z,99.99
2019-01-19T03:37:22.977Z,99.99
2019-01-19T03:39:22.754Z,99.99
2019-01-19T03:40:22.949Z,99.99
2019-01-19T03:41:22.732Z,99.99
2019-01-19T03:42:22.715Z,99.99
2019-01-19T03:43:22.702Z,99.99
2019-01-19T03:44:22.901Z,99.99
2019-01-19T03:45:22.683Z,99.99
2019-01-19T03:46:22.670Z,99.99
2019-01-19T03:48:22.646Z,99.99
2019-01-19T03:50:22.632Z,99.99
2019-01-19T03:51:22.617Z,99.99
2019-01-19T03:52:22.611Z,99.99
2019-01-19T03:53:22.598Z,99.99
2019-01-19T03:54:22.792Z,99.99
2019-01-19T03:55:22.573Z,99.99
2019-01-19T03:57:22.554Z,99.99
2019-01-19T03:58:22.750Z,99.99
2019-01-19T03:59:22.534Z,99.99
2019-01-19T04:00:22.516Z,99.99
2019-01-19T04:01:22.709Z,99.99
2019-01-19T04:02:22.699Z,99.99
2019-01-19T04:03:22.484Z,99.99
2019-01-19T04:04:22.674Z,99.99
2019-01-19T04:05:22.465Z,99.99
2019-01-19T04:06:22.452Z,99.99
2019-01-19T04:08:22.714Z,99.99
2019-01-19T04:09:22.418Z,99.99
2019-01-19T04:10:22.409Z,99.99
2019-01-19T04:13:22.386Z,99.99
2019-01-19T04:14:55.777Z,99.99
2019-01-19T04:15:22.559Z,99.99
2019-01-19T04:18:22.322Z,99.99
2019-01-19T04:19:22.512Z,99.99
2019-01-19T04:20:22.299Z,99.99
2019-01-19T04:21:22.286Z,99.99
2019-01-19T04:23:22.266Z,99.99
2019-01-19T04:24:22.257Z,99.99
2019-01-19T04:26:22.238Z,99.99
2019-01-19T04:27:22.425Z,99.99
2019-01-19T04:30:22.187Z,99.99
2019-01-19T04:31:22.175Z,99.99
2019-01-19T04:32:22.169Z,99.99
2019-01-19T04:34:22.148Z,99.99
2019-01-19T04:35:22.132Z,99.99
2019-01-19T04:38:22.308Z,99.99
2019-01-19T04:39:22.295Z,99.99
2019-01-19T04:41:22.071Z,99.99
2019-01-19T04:46:22.015Z,99.99
2019-01-19T04:47:22.204Z,99.99
2019-01-19T04:48:21.987Z,99.99
2019-01-19T04:50:21.975Z,99.99
2019-01-19T04:51:22.161Z,99.99
2019-01-19T04:53:22.133Z,99.99
2019-01-19T04:54:21.928Z,99.99
2019-01-19T04:55:21.911Z,99.99
2019-01-19T04:56:21.906Z,99.99
2019-01-19T04:58:21.876Z,99.99
2019-01-19T04:59:22.070Z,99.99
2019-01-19T05:00:21.866Z,99.99
2019-01-19T05:01:22.249Z,99.99
2019-01-19T05:02:21.835Z,99.99
2019-01-19T05:03:22.036Z,99.99
2019-01-19T05:06:29.997Z,99.99
2019-01-19T05:07:21.979Z,99.99
2019-01-19T05:10:21.749Z,99.99
2019-01-19T05:11:22.945Z,99.99
2019-01-19T05:14:21.703Z,99.99
2019-01-19T05:15:21.890Z,99.99
2019-01-19T05:16:21.680Z,99.99
2019-01-19T05:19:21.644Z,99.99
2019-01-19T05:20:21.638Z,99.99
2019-01-19T05:22:21.610Z,99.99
2019-01-19T05:23:21.808Z,99.99
2019-01-19T05:24:21.594Z,99.99
2019-01-19T05:25:21.582Z,99.99
2019-01-19T05:27:21.558Z,99.99
2019-01-19T05:31:21.525Z,99.99
2019-01-19T05:32:21.505Z,99.99
2019-01-19T05:33:21.690Z,99.99
2019-01-19T05:37:21.652Z,99.99
2019-01-19T05:40:21.416Z,99.99
2019-01-19T05:41:21.398Z,99.99
2019-01-19T05:42:21.394Z,99.99
2019-01-19T05:43:21.381Z,99.99
2019-01-19T05:44:21.372Z,99.99
2019-01-19T05:45:21.357Z,99.99
2019-01-19T05:46:21.747Z,99.99
2019-01-19T05:47:21.331Z,99.99
2019-01-19T05:48:21.526Z,99.99
2019-01-19T05:50:21.509Z,99.99
2019-01-19T05:52:21.489Z,99.99
2019-01-19T05:53:21.268Z,99.99
2019-01-19T05:55:21.251Z,99.99
2019-01-19T05:56:21.233Z,99.99
2019-01-19T05:57:21.422Z,99.99
2019-01-19T05:58:21.417Z,99.99
2019-01-19T06:04:21.149Z,99.99
2019-01-19T06:05:21.542Z,99.99
2019-01-19T06:07:21.109Z,99.99
2019-01-19T06:09:22.302Z,99.99
2019-01-19T06:10:21.282Z,99.99
2019-01-19T06:11:21.071Z,99.99
2019-01-19T06:12:21.258Z,99.99
2019-01-19T06:13:21.066Z,99.99
2019-01-19T06:16:21.011Z,99.99
2019-01-19T06:17:21.607Z,99.99
2019-01-19T06:18:21.188Z,99.99
2019-01-19T06:19:21.382Z,99.99
2019-01-19T06:20:20.971Z,99.99
2019-01-19T06:21:21.162Z,99.99
2019-01-19T06:22:20.949Z,99.99
2019-01-19T06:24:21.127Z,99.99
2019-01-19T06:25:20.913Z,99.99
2019-01-19T06:26:21.100Z,99.99
2019-01-19T06:27:20.893Z,99.99
2019-01-19T06:28:21.278Z,99.99
2019-01-19T06:29:21.275Z,99.99
2019-01-19T06:32:21.035Z,99.99
2019-01-19T06:35:20.999Z,99.99
2019-01-19T06:37:20.779Z,99.99
2019-01-19T06:39:20.763Z,99.99
2019-01-19T06:40:20.745Z,99.99
2019-01-19T06:41:20.730Z,99.99
2019-01-19T06:42:20.724Z,99.99
2019-01-19T06:43:22.122Z,99.99
2019-01-19T06:44:20.697Z,99.99
2019-01-19T06:45:20.693Z,99.99
2019-01-19T06:46:20.673Z,99.99
2019-01-19T06:47:20.865Z,99.99
2019-01-19T06:48:21.063Z,99.99
2019-01-19T06:51:20.620Z,99.99
2019-01-19T06:52:20.812Z,99.99
2019-01-19T06:53:20.601Z,99.99
2019-01-19T06:54:20.591Z,99.99
2019-01-19T06:55:20.573Z,99.99
2019-01-19T06:56:20.562Z,99.99
2019-01-19T06:57:20.557Z,99.99
2019-01-19T06:58:20.539Z,99.99
2019-01-19T06:59:20.530Z,99.99
2019-01-19T07:00:20.527Z,99.99
2019-01-19T07:01:20.506Z,99.99
2019-01-19T07:03:20.487Z,99.99
2019-01-19T07:04:20.522Z,99.99
2019-01-19T07:06:20.455Z,99.99
2019-01-19T07:07:20.445Z,99.99
2019-01-19T07:10:20.406Z,99.99
2019-01-19T07:11:20.402Z,99.99
2019-01-19T07:12:20.587Z,99.99
2019-01-19T07:14:20.369Z,99.99
2019-01-19T07:15:20.356Z,99.99
2019-01-19T07:16:20.342Z,99.99
2019-01-19T07:18:20.524Z,99.99
2019-01-19T07:19:21.537Z,99.99
2019-01-19T07:20:20.704Z,99.99
2019-01-19T07:21:20.282Z,99.99
2019-01-19T07:22:20.474Z,99.99
2019-01-19T07:23:20.265Z,99.99
2019-01-19T07:26:20.431Z,99.99
2019-01-19T07:27:20.416Z,99.99
2019-01-19T07:28:20.205Z,99.99
2019-01-19T07:29:20.191Z,99.99
2019-01-19T07:31:20.175Z,99.99
2019-01-19T07:32:20.361Z,99.99
2019-01-19T07:33:20.150Z,99.99
2019-01-19T07:35:20.128Z,99.99
2019-01-19T07:36:20.317Z,99.99
2019-01-19T07:37:20.104Z,99.99
2019-01-19T07:38:20.098Z,99.99
2019-01-19T07:39:20.282Z,99.99
2019-01-19T07:40:20.068Z,99.99
2019-01-19T07:41:20.063Z,99.99
2019-01-19T07:42:20.049Z,99.99
2019-01-19T07:43:20.237Z,99.99
2019-01-19T07:44:20.025Z,99.99
2019-01-19T07:46:19.998Z,99.99
2019-01-19T07:47:19.989Z,99.99
2019-01-19T07:49:20.172Z,99.99
2019-01-19T07:50:19.953Z,99.99
2019-01-19T07:51:19.949Z,99.99
2019-01-19T07:52:19.934Z,99.99
2019-01-19T07:53:19.924Z,99.99
2019-01-19T07:54:19.914Z,99.99
2019-01-19T07:55:19.906Z,99.99
2019-01-19T07:56:19.884Z,99.99
2019-01-19T07:57:19.873Z,99.99
2019-01-19T07:58:19.866Z,99.99
2019-01-19T07:59:19.862Z,99.99
2019-01-19T08:01:19.833Z,99.99
2019-01-19T08:03:19.812Z,99.99
2019-01-19T08:05:19.783Z,99.99
2019-01-19T08:06:19.775Z,99.99
2019-01-19T08:07:19.762Z,99.99
2019-01-19T08:08:19.749Z,99.99
2019-01-19T08:09:19.743Z,99.99
2019-01-19T08:10:19.932Z,99.99
2019-01-19T08:12:19.706Z,99.99
2019-01-19T08:13:19.694Z,99.99
2019-01-19T08:15:19.677Z,99.99
2019-01-19T08:16:19.666Z,99.99
2019-01-19T08:17:19.852Z,99.99
2019-01-19T08:18:19.641Z,99.99
2019-01-19T08:19:19.629Z,99.99
2019-01-19T08:22:19.590Z,99.99
2019-01-19T08:23:19.784Z,99.99
2019-01-19T08:24:19.568Z,99.99
2019-01-19T08:25:19.560Z,99.99
2019-01-19T08:26:19.547Z,99.99
2019-01-19T08:27:19.534Z,99.99
2019-01-19T08:28:19.527Z,99.99
2019-01-19T08:30:19.503Z,99.99
2019-01-19T08:31:19.494Z,99.99
2019-01-19T08:32:19.494Z,99.99
2019-01-19T08:33:19.475Z,99.99
2019-01-19T08:34:19.454Z,99.99
2019-01-19T08:35:20.861Z,99.99
2019-01-19T08:36:19.641Z,99.99
2019-01-19T08:37:24.413Z,99.99
2019-01-19T08:38:19.616Z,99.99
2019-01-19T08:39:19.403Z,99.99
2019-01-19T08:40:19.389Z,99.99
2019-01-19T08:41:19.381Z,99.99
2019-01-19T08:42:19.371Z,99.99
2019-01-19T08:43:19.558Z,99.99
2019-01-19T08:45:19.336Z,99.99
2019-01-19T08:46:19.321Z,99.99
2019-01-19T08:47:19.313Z,99.99
2019-01-19T08:48:19.308Z,99.99
2019-01-19T08:49:19.289Z,99.99
2019-01-19T08:51:19.269Z,99.99
2019-01-19T08:52:19.255Z,99.99
2019-01-19T08:53:19.450Z,99.99
2019-01-19T08:54:19.235Z,99.99
2019-01-19T08:55:19.228Z,99.99
2019-01-19T08:56:19.212Z,99.99
2019-01-19T08:57:19.407Z,99.99
2019-01-19T08:58:19.394Z,99.99
2019-01-19T08:59:19.178Z,99.99
2019-01-19T09:00:52.385Z,99.99
2019-01-19T09:01:19.159Z,99.99
2019-01-19T09:02:19.153Z,99.99
2019-01-19T09:04:19.132Z,99.99
2019-01-19T09:05:19.121Z,99.99
2019-01-19T09:06:19.102Z,99.99
2019-01-19T09:07:19.298Z,99.99
2019-01-19T09:08:19.081Z,99.99
2019-01-19T09:09:19.078Z,99.99
2019-01-19T09:10:19.065Z,99.99
2019-01-19T09:11:19.057Z,99.99
2019-01-19T09:12:19.040Z,99.99
2019-01-19T09:13:19.031Z,99.99
2019-01-19T09:14:19.022Z,99.99
2019-01-19T09:15:19.007Z,99.99
2019-01-19T09:16:18.999Z,99.99
2019-01-19T09:17:18.988Z,99.99
2019-01-19T09:18:18.974Z,99.99
2019-01-19T09:19:18.972Z,99.99
2019-01-19T09:20:18.954Z,99.99
2019-01-19T09:21:18.944Z,99.99
2019-01-19T09:22:18.933Z,99.99
2019-01-19T09:23:18.930Z,99.99
2019-01-19T09:24:18.922Z,99.99
2019-01-19T09:25:18.902Z,99.99
2019-01-19T09:26:18.898Z,99.99
2019-01-19T09:27:18.887Z,99.99
2019-01-19T09:28:18.877Z,99.99
2019-01-19T09:29:18.867Z,99.99
2019-01-19T09:30:18.850Z,99.99
2019-01-19T09:31:18.842Z,99.99
2019-01-19T09:32:18.834Z,99.99
2019-01-19T09:33:18.826Z,99.99
2019-01-19T09:34:18.812Z,99.99
2019-01-19T09:35:18.802Z,99.99
2019-01-19T09:36:18.793Z,99.99
2019-01-19T09:37:18.777Z,99.99
2019-01-19T09:38:18.771Z,99.99
2019-01-19T09:39:18.761Z,99.99
2019-01-19T09:40:18.785Z,99.99
2019-01-19T09:41:18.744Z,99.99
2019-01-19T09:42:18.725Z,99.99
2019-01-19T09:43:18.724Z,99.99
2019-01-19T09:44:18.705Z,99.99
2019-01-19T09:45:18.698Z,99.99
2019-01-19T09:46:18.691Z,99.99
2019-01-19T09:47:18.680Z,99.99
2019-01-19T09:48:18.665Z,99.99
2019-01-19T09:49:18.655Z,99.99
2019-01-19T09:50:18.646Z,99.99
2019-01-19T09:51:18.637Z,99.99
2019-01-19T09:52:21.325Z,99.99
2019-01-19T09:53:18.621Z,99.99
2019-01-19T09:54:18.612Z,99.99
2019-01-19T09:55:18.598Z,99.99
2019-01-19T09:56:18.684Z,99.99
2019-01-19T09:57:18.577Z,99.99
2019-01-19T09:58:18.572Z,99.99
2019-01-19T09:59:18.556Z,99.99
2019-01-19T10:00:18.551Z,99.99
2019-01-19T10:01:18.540Z,99.99
2019-01-19T10:02:18.525Z,99.99
2019-01-19T10:03:18.523Z,99.99
2019-01-19T10:04:18.508Z,99.99
2019-01-19T10:05:18.503Z,99.99
2019-01-19T10:06:18.490Z,99.99
2019-01-19T10:07:18.478Z,99.99
2019-01-19T10:08:18.474Z,99.99
2019-01-19T10:09:18.467Z,99.99
2019-01-19T10:10:18.450Z,99.99
2019-01-19T10:11:18.437Z,99.99
2019-01-19T10:12:18.429Z,99.99
2019-01-19T10:13:18.421Z,99.99
2019-01-19T10:14:18.412Z,99.99
2019-01-19T10:15:18.406Z,99.99
2019-01-19T10:16:18.395Z,99.99
2019-01-19T10:17:18.378Z,99.99
2019-01-19T10:18:18.376Z,99.99
2019-01-19T10:19:18.366Z,99.99
2019-01-19T10:20:18.357Z,99.99
2019-01-19T10:21:18.342Z,99.99
2019-01-19T10:22:18.332Z,99.99
2019-01-19T10:23:18.328Z,99.99
2019-01-19T10:24:18.314Z,99.99
2019-01-19T10:25:18.307Z,99.99
2019-01-19T10:26:18.292Z,99.99
2019-01-19T10:27:18.285Z,99.99
2019-01-19T10:28:18.277Z,99.99
2019-01-19T10:29:18.264Z,99.99
2019-01-19T10:30:18.254Z,99.99
2019-01-19T10:31:18.248Z,99.99
2019-01-19T10:32:18.238Z,99.99
2019-01-19T10:33:19.332Z,99.99
2019-01-19T10:34:18.218Z,99.99
2019-01-19T10:35:18.218Z,99.99
2019-01-19T10:36:18.201Z,99.99
2019-01-19T10:37:18.192Z,99.99
2019-01-19T10:38:18.183Z,99.99
2019-01-19T10:39:18.184Z,99.99
2019-01-19T10:40:18.162Z,99.99
2019-01-19T10:41:18.159Z,99.99
2019-01-19T10:42:18.147Z,99.99
2019-01-19T10:43:18.138Z,99.99
2019-01-19T10:44:18.126Z,99.99
2019-01-19T10:45:18.123Z,99.99
2019-01-19T10:46:18.116Z,99.99
2019-01-19T10:47:18.105Z,99.99
2019-01-19T10:48:18.096Z,99.99
2019-01-19T10:49:18.085Z,99.99
2019-01-19T10:50:18.081Z,99.99
2019-01-19T10:51:18.068Z,99.99
2019-01-19T10:52:18.060Z,99.99
2019-01-19T10:53:18.054Z,99.99
2019-01-19T10:54:18.045Z,99.99
2019-01-19T10:55:18.041Z,99.99
2019-01-19T10:56:18.023Z,99.99
2019-01-19T10:57:18.020Z,99.99
2019-01-19T10:58:18.010Z,99.99
2019-01-19T10:59:18.000Z,99.99
2019-01-19T11:00:17.991Z,99.99
2019-01-19T11:01:17.988Z,99.99
2019-01-19T11:02:18.009Z,99.99
2019-01-19T11:03:17.975Z,99.99
2019-01-19T11:04:17.962Z,99.99
2019-01-19T11:05:17.957Z,99.99
2019-01-19T11:06:17.950Z,99.99
2019-01-19T11:07:17.944Z,99.99
2019-01-19T11:08:17.932Z,99.99
2019-01-19T11:09:17.924Z,99.99
2019-01-19T11:10:17.915Z,99.99
2019-01-19T11:11:17.914Z,99.99
2019-01-19T11:12:17.905Z,99.99
2019-01-19T11:13:17.898Z,99.99
2019-01-19T11:15:17.883Z,99.99
2019-01-19T11:16:17.875Z,99.99
2019-01-19T11:17:17.867Z,99.99
2019-01-19T11:18:17.856Z,99.99
2019-01-19T11:19:17.855Z,99.99
2019-01-19T11:20:17.843Z,99.99
2019-01-19T11:21:17.841Z,99.99
2019-01-19T11:22:17.832Z,99.99
2019-01-19T11:23:17.822Z,99.99
2019-01-19T11:24:17.817Z,99.99
2019-01-19T11:25:17.816Z,99.72
2019-01-19T11:26:17.803Z,98.87
2019-01-19T11:27:17.800Z,96.78
2019-01-19T11:28:17.797Z,95.07
2019-01-19T11:29:17.793Z,94.32
2019-01-19T11:30:17.784Z,91.76
2019-01-19T11:31:17.775Z,90.72
2019-01-19T11:32:17.768Z,91.85
2019-01-19T11:33:17.762Z,91.38
2019-01-19T11:34:17.766Z,93.13
2019-01-19T11:35:17.753Z,94.18
2019-01-19T11:36:17.745Z,95.60
2019-01-19T11:37:17.744Z,94.08
2019-01-19T11:38:20.173Z,93.32
2019-01-19T11:39:17.731Z,94.08
2019-01-19T11:40:17.726Z,90.10
2019-01-19T11:41:17.725Z,87.58
2019-01-19T11:42:17.715Z,85.64
2019-01-19T11:43:17.712Z,83.94
2019-01-19T11:44:17.704Z,84.92
2019-01-19T11:45:17.701Z,87.39
2019-01-19T11:46:17.701Z,88.72
2019-01-19T11:47:17.691Z,87.77
2019-01-19T11:48:17.690Z,85.78
2019-01-19T11:49:17.686Z,85.87
2019-01-19T11:50:17.675Z,86.68
2019-01-19T11:51:17.676Z,82.50
2019-01-19T11:52:17.668Z,81.13
2019-01-19T11:53:17.665Z,81.79
2019-01-19T11:54:17.661Z,80.84
2019-01-19T11:55:17.661Z,81.88
2019-01-19T11:56:17.652Z,83.73
2019-01-19T11:57:17.654Z,82.59
2019-01-19T11:58:17.653Z,85.44
2019-01-19T11:59:17.643Z,83.73
2019-01-19T12:00:17.642Z,78.23
2019-01-19T12:01:17.635Z,78.89
2019-01-19T12:02:17.627Z,77.94
2019-01-19T12:03:17.623Z,76.99
2019-01-19T12:04:17.621Z,78.93
2019-01-19T12:05:17.624Z,78.36
2019-01-19T12:06:17.614Z,80.26
2019-01-19T12:07:18.481Z,81.21
2019-01-19T12:08:19.688Z,79.22
2019-01-19T12:09:17.612Z,78.83
2019-01-19T12:10:17.601Z,78.11
2019-01-19T12:11:17.604Z,73.33
2019-01-19T12:12:17.599Z,70.00
2019-01-19T12:13:17.600Z,71.33
2019-01-19T12:14:17.597Z,75.26
2019-01-19T12:15:17.594Z,75.07
2019-01-19T12:16:17.589Z,73.40
2019-01-19T12:17:17.587Z,68.27
2019-01-19T12:18:17.582Z,67.79
2019-01-19T12:19:17.579Z,67.50
2019-01-19T12:20:17.576Z,69.79
2019-01-19T12:21:17.582Z,70.54
2019-01-19T12:22:17.572Z,68.40
2019-01-19T12:23:17.574Z,66.20
2019-01-19T12:24:17.577Z,65.35
2019-01-19T12:25:17.571Z,63.89
2019-01-19T12:26:17.572Z,65.41
2019-01-19T12:27:17.573Z,63.60
2019-01-19T12:28:17.566Z,63.54
2019-01-19T12:29:17.566Z,66.20
2019-01-19T12:30:17.564Z,68.87
2019-01-19T12:31:17.562Z,68.40
2019-01-19T12:32:17.568Z,66.02
2019-01-19T12:33:17.562Z,64.21
2019-01-19T12:34:17.559Z,64.40
2019-01-19T12:35:17.558Z,62.59
2019-01-19T12:36:17.560Z,61.64
2019-01-19T12:37:17.555Z,64.02
2019-01-19T12:38:17.551Z,65.35
2019-01-19T12:39:17.559Z,62.18
2019-01-19T12:40:17.554Z,60.66
2019-01-19T12:41:17.549Z,62.46
2019-01-19T12:42:17.552Z,67.32
2019-01-19T12:43:17.552Z,68.74
2019-01-19T12:44:17.549Z,64.56
2019-01-19T12:45:17.550Z,63.99
2019-01-19T12:46:17.550Z,65.32
2019-01-19T12:47:17.540Z,66.27
2019-01-19T12:48:17.544Z,66.71
2019-01-19T12:49:17.544Z,67.94
2019-01-19T12:50:17.536Z,66.61
2019-01-19T12:51:17.532Z,67.47
2019-01-19T12:52:17.531Z,68.80
2019-01-19T12:53:17.532Z,68.99
2019-01-19T12:54:17.531Z,67.38
2019-01-19T12:55:17.523Z,67.85
2019-01-19T12:56:17.528Z,68.80
2019-01-19T12:57:17.521Z,69.18
2019-01-19T12:58:17.517Z,68.01
2019-01-19T12:59:17.519Z,70.23
2019-01-19T13:00:17.510Z,71.46
2019-01-19T13:01:17.512Z,70.32
2019-01-19T13:02:17.506Z,69.27
2019-01-19T13:03:17.501Z,67.25
2019-01-19T13:04:17.499Z,67.06
2019-01-19T13:05:17.498Z,69.43
2019-01-19T13:06:17.497Z,70.79
2019-01-19T13:07:17.494Z,71.23
2019-01-19T13:08:17.489Z,70.79
2019-01-19T13:09:17.483Z,70.13
2019-01-19T13:10:17.483Z,70.04
2019-01-19T13:11:17.479Z,69.71
2019-01-19T13:12:17.479Z,66.67
2019-01-19T13:13:17.478Z,65.25
2019-01-19T13:14:17.475Z,66.39
2019-01-19T13:15:17.465Z,66.67
2019-01-19T13:16:17.465Z,66.77
2019-01-19T13:17:17.464Z,67.06
2019-01-19T13:18:17.458Z,66.77
2019-01-19T13:19:17.457Z,65.12
2019-01-19T13:20:17.449Z,65.44
2019-01-19T13:21:17.452Z,66.87
2019-01-19T13:22:17.439Z,66.20
2019-01-19T13:23:17.438Z,65.06
2019-01-19T13:24:17.437Z,64.97
2019-01-19T13:25:17.430Z,64.49
2019-01-19T13:26:17.425Z,67.25
2019-01-19T13:27:17.433Z,66.61
2019-01-19T13:28:17.425Z,66.24
2019-01-19T13:29:17.416Z,65.25
2019-01-19T13:30:17.415Z,66.39
2019-01-19T13:31:17.411Z,66.96
2019-01-19T13:32:17.411Z,67.72
2019-01-19T13:33:17.411Z,68.10
2019-01-19T13:34:17.413Z,67.53
2019-01-19T13:35:17.395Z,68.86
2019-01-19T13:36:17.400Z,68.96
2019-01-19T13:37:17.397Z,69.15
2019-01-19T13:38:17.391Z,69.91
2019-01-19T13:39:17.385Z,71.43
2019-01-19T13:40:17.377Z,72.38
2019-01-19T13:41:17.374Z,71.52
2019-01-19T13:42:17.370Z,70.29
2019-01-19T13:43:17.368Z,69.81
2019-01-19T13:44:17.363Z,70.19
2019-01-19T13:45:17.359Z,67.91
2019-01-19T13:46:17.361Z,68.77
2019-01-19T13:47:17.358Z,69.62
2019-01-19T13:48:17.349Z,69.62
2019-01-19T13:49:17.351Z,68.01
2019-01-19T13:50:17.342Z,67.72
2019-01-19T13:51:17.335Z,68.86
2019-01-19T13:52:17.338Z,68.67
2019-01-19T13:53:17.335Z,68.58
2019-01-19T13:54:17.327Z,67.82
2019-01-19T13:55:17.364Z,67.44
2019-01-19T13:56:17.319Z,68.52
2019-01-19T13:57:17.315Z,68.04
2019-01-19T13:58:17.317Z,68.80
2019-01-19T13:59:17.313Z,68.13
2019-01-19T14:00:18.722Z,68.80
2019-01-19T14:01:17.304Z,67.82
2019-01-19T14:02:17.298Z,67.15
2019-01-19T14:03:17.298Z,67.15
2019-01-19T14:04:17.295Z,66.67
2019-01-19T14:05:17.286Z,66.87
2019-01-19T14:06:17.286Z,67.91
2019-01-19T14:07:17.276Z,68.77
2019-01-19T14:08:17.275Z,68.01
2019-01-19T14:09:17.273Z,68.10
2019-01-19T14:10:17.264Z,68.96
2019-01-19T14:11:17.267Z,69.34
2019-01-19T14:12:17.257Z,68.86
2019-01-19T14:13:17.255Z,69.91
2019-01-19T14:14:17.256Z,71.23
2019-01-19T14:15:17.250Z,71.52
2019-01-19T14:16:17.246Z,71.52
2019-01-19T14:17:17.242Z,69.24
2019-01-19T14:18:17.239Z,67.97
2019-01-19T14:19:17.230Z,67.88
2019-01-19T14:20:17.229Z,68.83
2019-01-19T14:21:17.220Z,70.25
2019-01-19T14:22:17.219Z,71.39
2019-01-19T14:23:17.210Z,71.01
2019-01-19T14:24:17.205Z,71.39
2019-01-19T14:25:17.210Z,72.34
2019-01-19T14:26:17.209Z,72.53
2019-01-19T14:27:17.196Z,72.34
2019-01-19T14:28:17.190Z,71.39
2019-01-19T14:29:17.186Z,69.93
2019-01-19T14:30:17.185Z,70.88
2019-01-19T14:31:17.180Z,71.07
2019-01-19T14:32:17.179Z,71.83
2019-01-19T14:33:17.169Z,71.55
2019-01-19T14:34:17.159Z,71.36
2019-01-19T14:35:17.158Z,72.21
2019-01-19T14:36:17.151Z,72.11
2019-01-19T14:37:17.142Z,73.16
2019-01-19T14:38:17.139Z,74.01
2019-01-19T14:39:17.133Z,74.20
2019-01-19T14:40:17.128Z,73.79
2019-01-19T14:41:17.128Z,74.45
2019-01-19T14:42:17.113Z,74.73
2019-01-19T14:43:17.116Z,74.54
2019-01-19T14:44:17.106Z,74.73
2019-01-19T14:45:17.101Z,75.11
2019-01-19T14:46:17.099Z,75.31
2019-01-19T14:47:17.093Z,76.34
2019-01-19T14:48:17.082Z,76.54
2019-01-19T14:49:17.079Z,77.11
2019-01-19T14:50:17.066Z,76.97
2019-01-19T14:51:17.066Z,76.78
2019-01-19T14:52:17.059Z,77.06
2019-01-19T14:53:17.051Z,77.83
2019-01-19T14:54:17.043Z,78.30
2019-01-19T14:55:17.083Z,78.49
2019-01-19T14:56:17.037Z,78.87
2019-01-19T14:57:17.026Z,79.72
2019-01-19T14:58:17.019Z,79.72
2019-01-19T14:59:17.009Z,79.82
2019-01-19T15:00:17.005Z,79.72
2019-01-19T15:01:16.998Z,80.76
2019-01-19T15:02:16.994Z,80.48
2019-01-19T15:03:16.982Z,80.38
2019-01-19T15:04:16.980Z,80.19
2019-01-19T15:05:16.973Z,80.67
2019-01-19T15:06:16.962Z,80.48
2019-01-19T15:07:16.963Z,80.19
2019-01-19T15:08:16.952Z,79.76
2019-01-19T15:09:16.943Z,78.53
2019-01-19T15:10:16.943Z,78.34
2019-01-19T15:11:16.929Z,77.01
2019-01-19T15:12:16.924Z,76.10
2019-01-19T15:13:16.917Z,76.39
2019-01-19T15:14:16.913Z,75.62
2019-01-19T15:15:16.907Z,74.58
2019-01-19T15:16:16.898Z,75.43
2019-01-19T15:17:16.889Z,74.58
2019-01-19T15:18:16.885Z,74.30
2019-01-19T15:19:16.875Z,74.20
2019-01-19T15:20:16.873Z,74.87
2019-01-19T15:21:16.868Z,75.31
2019-01-19T15:22:16.860Z,75.02